sensor_id;sensor_type;location;lat;lon;timestamp;P1;durP1;ratioP1;P2;durP2;ratioP2
5549;SDS011;2798;42.716;23.256;2022-08-25T00:01:13;28.00;;;8.90;;
5549;SDS011;2798;42.716;23.256;2022-08-25T00:03:41;18.17;;;8.20;;
5549;SDS011;2798;42.716;23.256;2022-08-25T00:06:07;21.90;;;7.80;;
5549;SDS011;2798;42.716;23.256;2022-08-25T00:08:34;24.13;;;7.70;;
5549;SDS011;2798;42.716;23.256;2022-08-25T00:11:05;26.23;;;8.23;;
5549;SDS011;2798;42.716;23.256;2022-08-25T00:13:33;18.13;;;7.40;;
5549;SDS011;2798;42.716;23.256;2022-08-25T00:15:59;22.27;;;8.47;;
5549;SDS011;2798;42.716;23.256;2022-08-25T00:18:24;23.53;;;7.00;;
5549;SDS011;2798;42.716;23.256;2022-08-25T00:20:50;17.50;;;7.90;;
5549;SDS011;2798;42.716;23.256;2022-08-25T00:23:16;29.90;;;9.03;;
5549;SDS011;2798;42.716;23.256;2022-08-25T00:25:42;16.93;;;8.37;;
5549;SDS011;2798;42.716;23.256;2022-08-25T00:28:07;20.80;;;8.37;;
5549;SDS011;2798;42.716;23.256;2022-08-25T00:30:34;20.40;;;8.50;;
5549;SDS011;2798;42.716;23.256;2022-08-25T00:33:00;21.43;;;9.60;;
5549;SDS011;2798;42.716;23.256;2022-08-25T00:35:27;28.13;;;8.70;;
5549;SDS011;2798;42.716;23.256;2022-08-25T00:37:53;26.70;;;9.53;;
5549;SDS011;2798;42.716;23.256;2022-08-25T00:40:19;26.63;;;8.77;;
5549;SDS011;2798;42.716;23.256;2022-08-25T00:42:46;22.60;;;8.03;;
5549;SDS011;2798;42.716;23.256;2022-08-25T00:45:11;25.17;;;8.80;;
5549;SDS011;2798;42.716;23.256;2022-08-25T00:47:37;14.20;;;8.17;;
5549;SDS011;2798;42.716;23.256;2022-08-25T00:50:05;18.80;;;8.70;;
5549;SDS011;2798;42.716;23.256;2022-08-25T00:52:49;20.83;;;9.03;;
5549;SDS011;2798;42.716;23.256;2022-08-25T00:55:20;29.87;;;8.50;;
5549;SDS011;2798;42.716;23.256;2022-08-25T00:57:59;31.13;;;8.63;;
5549;SDS011;2798;42.716;23.256;2022-08-25T01:00:36;17.70;;;8.13;;
5549;SDS011;2798;42.716;23.256;2022-08-25T01:03:04;24.93;;;8.50;;
5549;SDS011;2798;42.716;23.256;2022-08-25T01:05:30;20.60;;;9.80;;
5549;SDS011;2798;42.716;23.256;2022-08-25T01:07:56;16.50;;;8.53;;
5549;SDS011;2798;42.716;23.256;2022-08-25T01:10:22;16.70;;;8.40;;
5549;SDS011;2798;42.716;23.256;2022-08-25T01:12:48;16.27;;;7.67;;
5549;SDS011;2798;42.716;23.256;2022-08-25T01:15:17;12.70;;;8.37;;
5549;SDS011;2798;42.716;23.256;2022-08-25T01:17:46;28.23;;;9.40;;
5549;SDS011;2798;42.716;23.256;2022-08-25T01:20:17;18.07;;;8.10;;
5549;SDS011;2798;42.716;23.256;2022-08-25T01:22:46;28.83;;;8.10;;
5549;SDS011;2798;42.716;23.256;2022-08-25T01:25:24;23.13;;;8.50;;
5549;SDS011;2798;42.716;23.256;2022-08-25T01:27:56;25.70;;;7.77;;
5549;SDS011;2798;42.716;23.256;2022-08-25T01:30:22;17.87;;;7.90;;
5549;SDS011;2798;42.716;23.256;2022-08-25T01:32:48;18.60;;;8.10;;
5549;SDS011;2798;42.716;23.256;2022-08-25T01:35:14;19.03;;;8.33;;
5549;SDS011;2798;42.716;23.256;2022-08-25T01:37:40;18.50;;;7.87;;
5549;SDS011;2798;42.716;23.256;2022-08-25T01:40:05;21.13;;;7.07;;
5549;SDS011;2798;42.716;23.256;2022-08-25T01:42:33;23.47;;;7.90;;
5549;SDS011;2798;42.716;23.256;2022-08-25T01:45:07;22.37;;;7.57;;
5549;SDS011;2798;42.716;23.256;2022-08-25T01:47:32;28.73;;;8.00;;
5549;SDS011;2798;42.716;23.256;2022-08-25T01:49:58;12.83;;;6.80;;
5549;SDS011;2798;42.716;23.256;2022-08-25T01:52:27;15.57;;;6.97;;
5549;SDS011;2798;42.716;23.256;2022-08-25T01:54:56;14.83;;;7.10;;
5549;SDS011;2798;42.716;23.256;2022-08-25T01:57:22;14.70;;;7.10;;
5549;SDS011;2798;42.716;23.256;2022-08-25T01:59:48;13.17;;;6.53;;
5549;SDS011;2798;42.716;23.256;2022-08-25T02:02:13;15.30;;;6.60;;
5549;SDS011;2798;42.716;23.256;2022-08-25T02:04:39;24.03;;;7.70;;
5549;SDS011;2798;42.716;23.256;2022-08-25T02:07:05;25.87;;;8.47;;
5549;SDS011;2798;42.716;23.256;2022-08-25T02:09:32;26.90;;;7.43;;
5549;SDS011;2798;42.716;23.256;2022-08-25T02:11:58;20.43;;;6.77;;
5549;SDS011;2798;42.716;23.256;2022-08-25T02:14:24;17.30;;;7.60;;
5549;SDS011;2798;42.716;23.256;2022-08-25T02:16:50;19.63;;;6.90;;
5549;SDS011;2798;42.716;23.256;2022-08-25T02:19:17;21.00;;;7.97;;
5549;SDS011;2798;42.716;23.256;2022-08-25T02:21:44;32.17;;;7.30;;
5549;SDS011;2798;42.716;23.256;2022-08-25T02:24:10;23.73;;;7.90;;
5549;SDS011;2798;42.716;23.256;2022-08-25T02:26:36;26.27;;;7.97;;
5549;SDS011;2798;42.716;23.256;2022-08-25T02:29:02;18.20;;;7.40;;
5549;SDS011;2798;42.716;23.256;2022-08-25T02:31:29;19.10;;;6.90;;
5549;SDS011;2798;42.716;23.256;2022-08-25T02:33:55;26.23;;;7.53;;
5549;SDS011;2798;42.716;23.256;2022-08-25T02:36:21;21.73;;;7.07;;
5549;SDS011;2798;42.716;23.256;2022-08-25T02:38:47;18.73;;;7.33;;
5549;SDS011;2798;42.716;23.256;2022-08-25T02:41:17;15.33;;;7.47;;
5549;SDS011;2798;42.716;23.256;2022-08-25T02:43:46;20.67;;;7.63;;
5549;SDS011;2798;42.716;23.256;2022-08-25T02:46:13;18.80;;;7.10;;
5549;SDS011;2798;42.716;23.256;2022-08-25T02:48:40;23.17;;;7.40;;
5549;SDS011;2798;42.716;23.256;2022-08-25T02:51:06;14.30;;;7.30;;
5549;SDS011;2798;42.716;23.256;2022-08-25T02:53:33;17.33;;;8.10;;
5549;SDS011;2798;42.716;23.256;2022-08-25T02:56:00;24.97;;;7.70;;
5549;SDS011;2798;42.716;23.256;2022-08-25T02:58:26;26.37;;;7.67;;
5549;SDS011;2798;42.716;23.256;2022-08-25T03:00:52;27.27;;;7.70;;
5549;SDS011;2798;42.716;23.256;2022-08-25T03:03:18;29.10;;;7.70;;
5549;SDS011;2798;42.716;23.256;2022-08-25T03:05:44;15.20;;;7.03;;
5549;SDS011;2798;42.716;23.256;2022-08-25T03:08:10;28.80;;;7.23;;
5549;SDS011;2798;42.716;23.256;2022-08-25T03:10:36;11.87;;;6.73;;
5549;SDS011;2798;42.716;23.256;2022-08-25T03:13:01;13.63;;;7.73;;
5549;SDS011;2798;42.716;23.256;2022-08-25T03:15:27;16.60;;;7.07;;
5549;SDS011;2798;42.716;23.256;2022-08-25T03:17:53;25.13;;;8.10;;
5549;SDS011;2798;42.716;23.256;2022-08-25T03:20:23;14.90;;;7.70;;
5549;SDS011;2798;42.716;23.256;2022-08-25T03:22:49;21.13;;;7.50;;
5549;SDS011;2798;42.716;23.256;2022-08-25T03:25:15;18.23;;;8.07;;
5549;SDS011;2798;42.716;23.256;2022-08-25T03:28:01;18.03;;;7.73;;
5549;SDS011;2798;42.716;23.256;2022-08-25T03:30:27;15.50;;;7.83;;
5549;SDS011;2798;42.716;23.256;2022-08-25T03:32:53;17.60;;;7.47;;
5549;SDS011;2798;42.716;23.256;2022-08-25T03:35:19;22.33;;;8.10;;
5549;SDS011;2798;42.716;23.256;2022-08-25T03:37:45;27.20;;;8.23;;
5549;SDS011;2798;42.716;23.256;2022-08-25T03:40:11;25.10;;;8.70;;
5549;SDS011;2798;42.716;23.256;2022-08-25T03:42:42;13.57;;;6.97;;
5549;SDS011;2798;42.716;23.256;2022-08-25T03:45:09;16.10;;;8.13;;
5549;SDS011;2798;42.716;23.256;2022-08-25T03:47:38;19.40;;;8.20;;
5549;SDS011;2798;42.716;23.256;2022-08-25T03:50:05;21.73;;;8.20;;
5549;SDS011;2798;42.716;23.256;2022-08-25T03:52:32;20.40;;;7.90;;
5549;SDS011;2798;42.716;23.256;2022-08-25T03:54:58;28.23;;;8.73;;
5549;SDS011;2798;42.716;23.256;2022-08-25T03:57:25;18.93;;;8.43;;
5549;SDS011;2798;42.716;23.256;2022-08-25T03:59:50;12.07;;;6.87;;
5549;SDS011;2798;42.716;23.256;2022-08-25T04:02:16;20.17;;;7.77;;
5549;SDS011;2798;42.716;23.256;2022-08-25T04:04:42;23.10;;;7.80;;
5549;SDS011;2798;42.716;23.256;2022-08-25T04:07:08;19.50;;;7.80;;
5549;SDS011;2798;42.716;23.256;2022-08-25T04:09:33;19.17;;;8.10;;
5549;SDS011;2798;42.716;23.256;2022-08-25T04:11:59;18.33;;;7.43;;
5549;SDS011;2798;42.716;23.256;2022-08-25T04:14:24;18.97;;;7.57;;
5549;SDS011;2798;42.716;23.256;2022-08-25T04:16:50;21.80;;;8.07;;
5549;SDS011;2798;42.716;23.256;2022-08-25T04:19:16;15.63;;;6.97;;
5549;SDS011;2798;42.716;23.256;2022-08-25T04:21:43;35.53;;;9.40;;
5549;SDS011;2798;42.716;23.256;2022-08-25T04:24:09;24.90;;;7.90;;
5549;SDS011;2798;42.716;23.256;2022-08-25T04:26:38;19.57;;;8.17;;
5549;SDS011;2798;42.716;23.256;2022-08-25T04:29:06;19.13;;;8.40;;
5549;SDS011;2798;42.716;23.256;2022-08-25T04:31:34;14.03;;;8.40;;
5549;SDS011;2798;42.716;23.256;2022-08-25T04:34:03;18.63;;;8.83;;
5549;SDS011;2798;42.716;23.256;2022-08-25T04:36:29;23.50;;;8.23;;
5549;SDS011;2798;42.716;23.256;2022-08-25T04:38:54;22.93;;;7.90;;
5549;SDS011;2798;42.716;23.256;2022-08-25T04:41:21;23.63;;;7.90;;
5549;SDS011;2798;42.716;23.256;2022-08-25T04:43:48;22.70;;;8.20;;
5549;SDS011;2798;42.716;23.256;2022-08-25T04:46:16;23.33;;;8.57;;
5549;SDS011;2798;42.716;23.256;2022-08-25T04:48:43;18.03;;;7.93;;
5549;SDS011;2798;42.716;23.256;2022-08-25T04:51:13;20.17;;;7.30;;
5549;SDS011;2798;42.716;23.256;2022-08-25T04:53:41;15.37;;;8.33;;
5549;SDS011;2798;42.716;23.256;2022-08-25T04:56:11;18.63;;;9.00;;
5549;SDS011;2798;42.716;23.256;2022-08-25T04:58:39;19.60;;;7.73;;
5549;SDS011;2798;42.716;23.256;2022-08-25T05:01:07;20.43;;;9.57;;
5549;SDS011;2798;42.716;23.256;2022-08-25T05:03:34;18.53;;;7.70;;
5549;SDS011;2798;42.716;23.256;2022-08-25T05:06:00;25.50;;;8.20;;
5549;SDS011;2798;42.716;23.256;2022-08-25T05:08:26;17.37;;;7.80;;
5549;SDS011;2798;42.716;23.256;2022-08-25T05:10:52;19.07;;;8.00;;
5549;SDS011;2798;42.716;23.256;2022-08-25T05:13:20;21.70;;;8.00;;
5549;SDS011;2798;42.716;23.256;2022-08-25T05:15:50;23.77;;;8.90;;
5549;SDS011;2798;42.716;23.256;2022-08-25T05:18:18;20.73;;;7.50;;
5549;SDS011;2798;42.716;23.256;2022-08-25T05:20:45;20.93;;;9.30;;
5549;SDS011;2798;42.716;23.256;2022-08-25T05:23:10;17.87;;;6.87;;
5549;SDS011;2798;42.716;23.256;2022-08-25T05:25:36;17.80;;;8.30;;
5549;SDS011;2798;42.716;23.256;2022-08-25T05:28:02;17.30;;;7.70;;
5549;SDS011;2798;42.716;23.256;2022-08-25T05:30:27;15.83;;;7.93;;
5549;SDS011;2798;42.716;23.256;2022-08-25T05:32:53;18.53;;;8.27;;
5549;SDS011;2798;42.716;23.256;2022-08-25T05:35:18;13.20;;;7.70;;
5549;SDS011;2798;42.716;23.256;2022-08-25T05:37:44;19.50;;;8.80;;
5549;SDS011;2798;42.716;23.256;2022-08-25T05:40:10;26.90;;;9.43;;
5549;SDS011;2798;42.716;23.256;2022-08-25T05:42:36;17.97;;;7.00;;
5549;SDS011;2798;42.716;23.256;2022-08-25T05:45:03;22.03;;;8.10;;
5549;SDS011;2798;42.716;23.256;2022-08-25T05:47:29;22.67;;;7.70;;
5549;SDS011;2798;42.716;23.256;2022-08-25T05:49:55;15.43;;;7.83;;
5549;SDS011;2798;42.716;23.256;2022-08-25T05:52:20;15.60;;;7.70;;
5549;SDS011;2798;42.716;23.256;2022-08-25T05:54:46;17.93;;;7.73;;
5549;SDS011;2798;42.716;23.256;2022-08-25T05:57:11;33.27;;;9.03;;
5549;SDS011;2798;42.716;23.256;2022-08-25T05:59:37;19.70;;;7.90;;
5549;SDS011;2798;42.716;23.256;2022-08-25T06:02:02;18.87;;;7.40;;
5549;SDS011;2798;42.716;23.256;2022-08-25T06:04:46;16.80;;;8.83;;
5549;SDS011;2798;42.716;23.256;2022-08-25T06:07:12;16.07;;;7.70;;
5549;SDS011;2798;42.716;23.256;2022-08-25T06:09:38;21.00;;;8.80;;
5549;SDS011;2798;42.716;23.256;2022-08-25T06:12:05;17.87;;;8.40;;
5549;SDS011;2798;42.716;23.256;2022-08-25T06:14:32;17.80;;;8.20;;
5549;SDS011;2798;42.716;23.256;2022-08-25T06:16:58;17.60;;;8.93;;
5549;SDS011;2798;42.716;23.256;2022-08-25T06:19:24;21.43;;;8.80;;
5549;SDS011;2798;42.716;23.256;2022-08-25T06:21:54;19.53;;;8.97;;
5549;SDS011;2798;42.716;23.256;2022-08-25T06:24:21;26.63;;;8.83;;
5549;SDS011;2798;42.716;23.256;2022-08-25T06:26:48;16.83;;;8.20;;
5549;SDS011;2798;42.716;23.256;2022-08-25T06:29:13;23.77;;;8.23;;
5549;SDS011;2798;42.716;23.256;2022-08-25T06:31:39;21.73;;;8.80;;
5549;SDS011;2798;42.716;23.256;2022-08-25T06:34:05;15.30;;;8.37;;
5549;SDS011;2798;42.716;23.256;2022-08-25T06:36:31;21.83;;;8.17;;
5549;SDS011;2798;42.716;23.256;2022-08-25T06:38:57;19.70;;;7.60;;
5549;SDS011;2798;42.716;23.256;2022-08-25T06:41:23;22.37;;;8.20;;
5549;SDS011;2798;42.716;23.256;2022-08-25T06:43:49;14.70;;;7.80;;
5549;SDS011;2798;42.716;23.256;2022-08-25T06:46:19;21.37;;;7.83;;
5549;SDS011;2798;42.716;23.256;2022-08-25T06:48:46;15.23;;;7.53;;
5549;SDS011;2798;42.716;23.256;2022-08-25T06:51:13;18.90;;;7.47;;
5549;SDS011;2798;42.716;23.256;2022-08-25T06:53:41;17.73;;;7.53;;
5549;SDS011;2798;42.716;23.256;2022-08-25T06:56:08;16.47;;;7.83;;
5549;SDS011;2798;42.716;23.256;2022-08-25T06:58:34;11.67;;;6.63;;
5549;SDS011;2798;42.716;23.256;2022-08-25T07:01:07;23.97;;;8.57;;
5549;SDS011;2798;42.716;23.256;2022-08-25T07:03:37;13.50;;;7.80;;
5549;SDS011;2798;42.716;23.256;2022-08-25T07:06:03;18.17;;;7.70;;
5549;SDS011;2798;42.716;23.256;2022-08-25T07:08:29;17.57;;;7.63;;
5549;SDS011;2798;42.716;23.256;2022-08-25T07:10:56;15.00;;;7.60;;
5549;SDS011;2798;42.716;23.256;2022-08-25T07:13:22;18.83;;;7.90;;
5549;SDS011;2798;42.716;23.256;2022-08-25T07:15:51;19.43;;;7.83;;
5549;SDS011;2798;42.716;23.256;2022-08-25T07:18:18;15.97;;;7.60;;
5549;SDS011;2798;42.716;23.256;2022-08-25T07:20:43;17.17;;;7.60;;
5549;SDS011;2798;42.716;23.256;2022-08-25T07:23:09;19.40;;;8.67;;
5549;SDS011;2798;42.716;23.256;2022-08-25T07:25:35;17.63;;;8.13;;
5549;SDS011;2798;42.716;23.256;2022-08-25T07:28:01;15.27;;;6.63;;
5549;SDS011;2798;42.716;23.256;2022-08-25T07:30:27;23.77;;;8.57;;
5549;SDS011;2798;42.716;23.256;2022-08-25T07:32:53;18.73;;;7.80;;
5549;SDS011;2798;42.716;23.256;2022-08-25T07:35:19;17.73;;;7.00;;
5549;SDS011;2798;42.716;23.256;2022-08-25T07:37:48;21.40;;;8.03;;
5549;SDS011;2798;42.716;23.256;2022-08-25T07:40:19;13.40;;;7.43;;
5549;SDS011;2798;42.716;23.256;2022-08-25T07:42:47;17.20;;;8.07;;
5549;SDS011;2798;42.716;23.256;2022-08-25T07:45:14;18.67;;;7.67;;
5549;SDS011;2798;42.716;23.256;2022-08-25T07:47:40;10.60;;;6.80;;
5549;SDS011;2798;42.716;23.256;2022-08-25T07:50:06;15.50;;;7.43;;
5549;SDS011;2798;42.716;23.256;2022-08-25T07:52:34;17.80;;;7.97;;
5549;SDS011;2798;42.716;23.256;2022-08-25T07:54:59;21.20;;;7.00;;
5549;SDS011;2798;42.716;23.256;2022-08-25T07:57:25;14.50;;;7.03;;
5549;SDS011;2798;42.716;23.256;2022-08-25T07:59:52;13.57;;;7.57;;
5549;SDS011;2798;42.716;23.256;2022-08-25T08:02:18;13.03;;;6.63;;
5549;SDS011;2798;42.716;23.256;2022-08-25T08:04:43;14.70;;;6.50;;
5549;SDS011;2798;42.716;23.256;2022-08-25T08:07:10;17.60;;;7.20;;
5549;SDS011;2798;42.716;23.256;2022-08-25T08:09:36;20.03;;;8.30;;
5549;SDS011;2798;42.716;23.256;2022-08-25T08:12:02;17.17;;;6.97;;
5549;SDS011;2798;42.716;23.256;2022-08-25T08:14:29;23.13;;;7.13;;
5549;SDS011;2798;42.716;23.256;2022-08-25T08:16:55;14.53;;;6.40;;
5549;SDS011;2798;42.716;23.256;2022-08-25T08:19:21;20.53;;;6.83;;
5549;SDS011;2798;42.716;23.256;2022-08-25T08:21:47;12.97;;;7.00;;
5549;SDS011;2798;42.716;23.256;2022-08-25T08:24:13;18.83;;;6.90;;
5549;SDS011;2798;42.716;23.256;2022-08-25T08:26:39;15.93;;;7.40;;
5549;SDS011;2798;42.716;23.256;2022-08-25T08:29:04;27.10;;;7.67;;
5549;SDS011;2798;42.716;23.256;2022-08-25T08:31:30;15.63;;;7.10;;
5549;SDS011;2798;42.716;23.256;2022-08-25T08:33:55;16.73;;;7.03;;
5549;SDS011;2798;42.716;23.256;2022-08-25T08:36:22;18.73;;;7.23;;
5549;SDS011;2798;42.716;23.256;2022-08-25T08:38:50;14.33;;;6.70;;
5549;SDS011;2798;42.716;23.256;2022-08-25T08:52:21;16.23;;;7.50;;
5549;SDS011;2798;42.716;23.256;2022-08-25T08:55:02;18.03;;;7.67;;
5549;SDS011;2798;42.716;23.256;2022-08-25T08:57:35;16.63;;;6.70;;
5549;SDS011;2798;42.716;23.256;2022-08-25T09:00:08;26.57;;;6.67;;
5549;SDS011;2798;42.716;23.256;2022-08-25T09:02:37;22.90;;;6.60;;
5549;SDS011;2798;42.716;23.256;2022-08-25T09:05:11;23.33;;;7.23;;
5549;SDS011;2798;42.716;23.256;2022-08-25T09:07:49;19.17;;;6.73;;
5549;SDS011;2798;42.716;23.256;2022-08-25T09:10:19;18.40;;;6.70;;
5549;SDS011;2798;42.716;23.256;2022-08-25T09:12:46;22.30;;;6.93;;
5549;SDS011;2798;42.716;23.256;2022-08-25T09:18:33;23.70;;;6.33;;
5549;SDS011;2798;42.716;23.256;2022-08-25T09:29:24;21.30;;;6.60;;
5549;SDS011;2798;42.716;23.256;2022-08-25T09:31:54;22.30;;;6.23;;
5549;SDS011;2798;42.716;23.256;2022-08-25T09:34:23;18.90;;;6.70;;
5549;SDS011;2798;42.716;23.256;2022-08-25T09:36:53;24.30;;;6.00;;
5549;SDS011;2798;42.716;23.256;2022-08-25T09:39:20;25.83;;;5.90;;
5549;SDS011;2798;42.716;23.256;2022-08-25T09:41:48;26.00;;;5.03;;
5549;SDS011;2798;42.716;23.256;2022-08-25T09:44:31;21.53;;;5.00;;
5549;SDS011;2798;42.716;23.256;2022-08-25T09:55:22;21.47;;;4.40;;
5549;SDS011;2798;42.716;23.256;2022-08-25T09:57:53;25.60;;;5.80;;
5549;SDS011;2798;42.716;23.256;2022-08-25T10:05:33;17.83;;;5.13;;
5549;SDS011;2798;42.716;23.256;2022-08-25T10:08:12;21.03;;;6.40;;
5549;SDS011;2798;42.716;23.256;2022-08-25T10:10:52;18.77;;;5.57;;
5549;SDS011;2798;42.716;23.256;2022-08-25T10:13:30;17.57;;;5.90;;
5549;SDS011;2798;42.716;23.256;2022-08-25T10:16:03;40.40;;;6.50;;
5549;SDS011;2798;42.716;23.256;2022-08-25T10:18:58;24.97;;;5.83;;
5549;SDS011;2798;42.716;23.256;2022-08-25T10:21:30;29.07;;;4.67;;
5549;SDS011;2798;42.716;23.256;2022-08-25T10:23:56;45.17;;;6.57;;
5549;SDS011;2798;42.716;23.256;2022-08-25T10:29:29;31.43;;;5.37;;
5549;SDS011;2798;42.716;23.256;2022-08-25T10:34:49;34.87;;;4.53;;
5549;SDS011;2798;42.716;23.256;2022-08-25T10:45:34;28.57;;;4.60;;
5549;SDS011;2798;42.716;23.256;2022-08-25T10:50:49;36.93;;;4.60;;
5549;SDS011;2798;42.716;23.256;2022-08-25T10:53:25;25.27;;;4.53;;
5549;SDS011;2798;42.716;23.256;2022-08-25T11:04:02;26.43;;;4.97;;
5549;SDS011;2798;42.716;23.256;2022-08-25T11:06:36;14.90;;;4.07;;
5549;SDS011;2798;42.716;23.256;2022-08-25T11:09:10;22.80;;;4.30;;
5549;SDS011;2798;42.716;23.256;2022-08-25T11:14:09;25.17;;;4.03;;
5549;SDS011;2798;42.716;23.256;2022-08-25T11:27:12;22.73;;;4.60;;
5549;SDS011;2798;42.716;23.256;2022-08-25T11:29:45;43.53;;;4.60;;
5549;SDS011;2798;42.716;23.256;2022-08-25T11:32:20;16.40;;;4.07;;
5549;SDS011;2798;42.716;23.256;2022-08-25T11:34:48;21.27;;;4.67;;
5549;SDS011;2798;42.716;23.256;2022-08-25T11:37:23;18.77;;;4.40;;
5549;SDS011;2798;42.716;23.256;2022-08-25T11:40:13;19.57;;;3.70;;
5549;SDS011;2798;42.716;23.256;2022-08-25T11:43:00;25.93;;;4.73;;
5549;SDS011;2798;42.716;23.256;2022-08-25T11:51:47;33.03;;;4.60;;
5549;SDS011;2798;42.716;23.256;2022-08-25T11:54:19;22.70;;;4.90;;
5549;SDS011;2798;42.716;23.256;2022-08-25T11:56:52;15.33;;;4.00;;
5549;SDS011;2798;42.716;23.256;2022-08-25T12:02:46;15.20;;;3.50;;
5549;SDS011;2798;42.716;23.256;2022-08-25T12:13:24;17.37;;;4.40;;
5549;SDS011;2798;42.716;23.256;2022-08-25T12:27:21;16.00;;;3.83;;
5549;SDS011;2798;42.716;23.256;2022-08-25T12:30:09;25.30;;;4.37;;
5549;SDS011;2798;42.716;23.256;2022-08-25T12:38:26;19.37;;;4.00;;
5549;SDS011;2798;42.716;23.256;2022-08-25T12:43:36;18.10;;;3.93;;
5549;SDS011;2798;42.716;23.256;2022-08-25T12:48:57;7.97;;;3.57;;
5549;SDS011;2798;42.716;23.256;2022-08-25T12:52:09;20.77;;;4.07;;
5549;SDS011;2798;42.716;23.256;2022-08-25T12:54:24;16.80;;;3.93;;
5549;SDS011;2798;42.716;23.256;2022-08-25T12:57:51;15.17;;;4.10;;
5549;SDS011;2798;42.716;23.256;2022-08-25T13:00:15;15.03;;;3.50;;
5549;SDS011;2798;42.716;23.256;2022-08-25T13:07:59;12.90;;;3.30;;
5549;SDS011;2798;42.716;23.256;2022-08-25T13:16:04;14.83;;;4.20;;
5549;SDS011;2798;42.716;23.256;2022-08-25T13:18:34;12.93;;;3.67;;
5549;SDS011;2798;42.716;23.256;2022-08-25T13:21:13;26.13;;;4.20;;
5549;SDS011;2798;42.716;23.256;2022-08-25T13:23:52;11.40;;;3.43;;
5549;SDS011;2798;42.716;23.256;2022-08-25T13:26:32;14.73;;;3.93;;
5549;SDS011;2798;42.716;23.256;2022-08-25T13:31:33;16.10;;;3.67;;
5549;SDS011;2798;42.716;23.256;2022-08-25T13:34:06;22.93;;;4.17;;
5549;SDS011;2798;42.716;23.256;2022-08-25T13:36:41;21.60;;;4.10;;
5549;SDS011;2798;42.716;23.256;2022-08-25T13:39:27;16.93;;;3.80;;
5549;SDS011;2798;42.716;23.256;2022-08-25T13:41:55;26.77;;;4.10;;
5549;SDS011;2798;42.716;23.256;2022-08-25T13:44:25;24.43;;;5.07;;
5549;SDS011;2798;42.716;23.256;2022-08-25T13:47:07;19.40;;;4.27;;
5549;SDS011;2798;42.716;23.256;2022-08-25T13:49:39;26.00;;;4.60;;
5549;SDS011;2798;42.716;23.256;2022-08-25T13:52:06;31.50;;;4.47;;
5549;SDS011;2798;42.716;23.256;2022-08-25T13:54:40;31.40;;;5.30;;
5549;SDS011;2798;42.716;23.256;2022-08-25T13:57:17;15.87;;;4.23;;
5549;SDS011;2798;42.716;23.256;2022-08-25T13:59:50;15.60;;;3.60;;
5549;SDS011;2798;42.716;23.256;2022-08-25T14:08:03;21.20;;;4.20;;
5549;SDS011;2798;42.716;23.256;2022-08-25T14:10:34;19.27;;;4.63;;
5549;SDS011;2798;42.716;23.256;2022-08-25T14:13:34;12.30;;;3.83;;
5549;SDS011;2798;42.716;23.256;2022-08-25T14:15:52;17.67;;;4.53;;
5549;SDS011;2798;42.716;23.256;2022-08-25T14:18:21;16.83;;;3.90;;
5549;SDS011;2798;42.716;23.256;2022-08-25T14:20:55;18.80;;;4.23;;
5549;SDS011;2798;42.716;23.256;2022-08-25T14:23:22;16.80;;;4.00;;
5549;SDS011;2798;42.716;23.256;2022-08-25T14:25:51;22.60;;;3.70;;
5549;SDS011;2798;42.716;23.256;2022-08-25T14:28:19;17.83;;;3.40;;
5549;SDS011;2798;42.716;23.256;2022-08-25T14:30:48;15.87;;;3.87;;
5549;SDS011;2798;42.716;23.256;2022-08-25T14:33:16;17.40;;;3.73;;
5549;SDS011;2798;42.716;23.256;2022-08-25T14:35:45;17.07;;;4.10;;
5549;SDS011;2798;42.716;23.256;2022-08-25T14:38:15;38.47;;;3.90;;
5549;SDS011;2798;42.716;23.256;2022-08-25T14:40:41;23.27;;;3.93;;
5549;SDS011;2798;42.716;23.256;2022-08-25T14:43:07;20.17;;;3.80;;
5549;SDS011;2798;42.716;23.256;2022-08-25T14:45:33;26.83;;;3.73;;
5549;SDS011;2798;42.716;23.256;2022-08-25T14:48:06;24.63;;;4.10;;
5549;SDS011;2798;42.716;23.256;2022-08-25T14:50:33;16.57;;;3.87;;
5549;SDS011;2798;42.716;23.256;2022-08-25T14:52:59;19.00;;;3.70;;
5549;SDS011;2798;42.716;23.256;2022-08-25T14:55:26;28.20;;;3.63;;
5549;SDS011;2798;42.716;23.256;2022-08-25T14:57:51;24.80;;;4.20;;
5549;SDS011;2798;42.716;23.256;2022-08-25T15:00:17;20.27;;;4.43;;
5549;SDS011;2798;42.716;23.256;2022-08-25T15:02:43;15.40;;;3.63;;
5549;SDS011;2798;42.716;23.256;2022-08-25T15:05:11;27.97;;;4.80;;
5549;SDS011;2798;42.716;23.256;2022-08-25T15:07:40;16.23;;;3.50;;
5549;SDS011;2798;42.716;23.256;2022-08-25T15:10:24;26.73;;;4.40;;
5549;SDS011;2798;42.716;23.256;2022-08-25T15:12:50;28.77;;;4.57;;
5549;SDS011;2798;42.716;23.256;2022-08-25T15:15:16;19.60;;;4.50;;
5549;SDS011;2798;42.716;23.256;2022-08-25T15:17:42;26.03;;;4.40;;
5549;SDS011;2798;42.716;23.256;2022-08-25T15:20:09;18.43;;;4.03;;
5549;SDS011;2798;42.716;23.256;2022-08-25T15:22:34;22.03;;;4.03;;
5549;SDS011;2798;42.716;23.256;2022-08-25T15:25:00;27.87;;;4.40;;
5549;SDS011;2798;42.716;23.256;2022-08-25T15:27:45;23.47;;;4.40;;
5549;SDS011;2798;42.716;23.256;2022-08-25T15:30:11;18.03;;;4.10;;
5549;SDS011;2798;42.716;23.256;2022-08-25T15:32:37;18.93;;;4.33;;
5549;SDS011;2798;42.716;23.256;2022-08-25T15:35:02;13.27;;;3.87;;
5549;SDS011;2798;42.716;23.256;2022-08-25T15:37:28;18.00;;;3.97;;
5549;SDS011;2798;42.716;23.256;2022-08-25T15:39:53;19.33;;;4.23;;
5549;SDS011;2798;42.716;23.256;2022-08-25T15:42:19;22.03;;;4.23;;
5549;SDS011;2798;42.716;23.256;2022-08-25T15:44:44;23.10;;;4.63;;
5549;SDS011;2798;42.716;23.256;2022-08-25T15:47:10;22.30;;;4.70;;
5549;SDS011;2798;42.716;23.256;2022-08-25T15:49:35;18.90;;;4.17;;
5549;SDS011;2798;42.716;23.256;2022-08-25T15:52:01;23.17;;;5.53;;
5549;SDS011;2798;42.716;23.256;2022-08-25T15:54:27;14.10;;;4.00;;
5549;SDS011;2798;42.716;23.256;2022-08-25T15:56:54;15.77;;;3.70;;
5549;SDS011;2798;42.716;23.256;2022-08-25T15:59:21;30.37;;;4.67;;
5549;SDS011;2798;42.716;23.256;2022-08-25T16:01:46;20.20;;;4.60;;
5549;SDS011;2798;42.716;23.256;2022-08-25T16:04:12;16.50;;;4.20;;
5549;SDS011;2798;42.716;23.256;2022-08-25T16:06:38;28.13;;;4.70;;
5549;SDS011;2798;42.716;23.256;2022-08-25T16:09:04;17.20;;;4.10;;
5549;SDS011;2798;42.716;23.256;2022-08-25T16:11:31;25.73;;;5.87;;
5549;SDS011;2798;42.716;23.256;2022-08-25T16:13:58;18.27;;;4.60;;
5549;SDS011;2798;42.716;23.256;2022-08-25T16:16:25;20.63;;;4.90;;
5549;SDS011;2798;42.716;23.256;2022-08-25T16:18:52;16.60;;;4.27;;
5549;SDS011;2798;42.716;23.256;2022-08-25T16:21:19;20.50;;;4.83;;
5549;SDS011;2798;42.716;23.256;2022-08-25T16:23:51;17.30;;;4.87;;
5549;SDS011;2798;42.716;23.256;2022-08-25T16:26:18;17.90;;;4.50;;
5549;SDS011;2798;42.716;23.256;2022-08-25T16:28:43;18.83;;;5.00;;
5549;SDS011;2798;42.716;23.256;2022-08-25T16:31:09;14.40;;;4.27;;
5549;SDS011;2798;42.716;23.256;2022-08-25T16:33:37;23.80;;;4.70;;
5549;SDS011;2798;42.716;23.256;2022-08-25T16:36:04;13.90;;;4.00;;
5549;SDS011;2798;42.716;23.256;2022-08-25T16:38:31;19.30;;;4.73;;
5549;SDS011;2798;42.716;23.256;2022-08-25T16:40:57;19.70;;;4.70;;
5549;SDS011;2798;42.716;23.256;2022-08-25T16:43:22;12.83;;;6.80;;
5549;SDS011;2798;42.716;23.256;2022-08-25T16:45:55;26.70;;;5.47;;
5549;SDS011;2798;42.716;23.256;2022-08-25T16:48:22;21.07;;;4.60;;
5549;SDS011;2798;42.716;23.256;2022-08-25T16:50:47;19.00;;;5.33;;
5549;SDS011;2798;42.716;23.256;2022-08-25T16:53:12;14.73;;;4.70;;
5549;SDS011;2798;42.716;23.256;2022-08-25T16:56:13;25.90;;;4.70;;
5549;SDS011;2798;42.716;23.256;2022-08-25T16:58:39;20.50;;;5.40;;
5549;SDS011;2798;42.716;23.256;2022-08-25T17:01:05;25.57;;;4.67;;
5549;SDS011;2798;42.716;23.256;2022-08-25T17:03:32;30.00;;;5.50;;
5549;SDS011;2798;42.716;23.256;2022-08-25T17:05:59;14.77;;;5.90;;
5549;SDS011;2798;42.716;23.256;2022-08-25T17:08:24;21.97;;;5.40;;
5549;SDS011;2798;42.716;23.256;2022-08-25T17:10:54;16.77;;;4.50;;